KLM1207 EHAM-ENGM
Flight info
| Callsign | KLM1207 |
|---|---|
| Flight time | N/A |
| Altitude | 35000 |
| Route | ANDIK Z733 KONOM DCT AMADA DCT PIPEX M609 RIPAM |
| Aircraft | A21N/M-SDE2E3FGHIRWXY/LB1 |
Departure
| Time | 2026-05-04 11:27 |
|---|---|
| Airport | Amsterdam Airport Schiphol (EHAM) |
Arrival
| Time | N/A |
|---|---|
| Airport | Oslo-Gardermoen International Airport (ENGM) |
| Time | Latitude | Longitude | Altitude | Speed | Heading |
|---|---|---|---|---|---|
| 2026-05-04 11:10 | 52.30911 | 4.76795 | 2 ft | 0 kts | 183° |
| 2026-05-04 11:19 | 52.30929 | 4.76796 | 2 ft | 4 kts | 184° |
| 2026-05-04 11:19 | 52.30956 | 4.76800 | 2 ft | 4 kts | 185° |
| 2026-05-04 11:19 | 52.30983 | 4.76804 | 2 ft | 4 kts | 182° |
| 2026-05-04 11:20 | 52.31008 | 4.76801 | 2 ft | 4 kts | 152° |
| 2026-05-04 11:20 | 52.31020 | 4.76802 | 2 ft | 4 kts | 53° |
| 2026-05-04 11:20 | 52.31024 | 4.76805 | 2 ft | 1 kts | 33° |
| 2026-05-04 11:24 | 52.30861 | 4.77470 | 2 ft | 10 kts | 182° |
| 2026-05-04 11:25 | 52.30775 | 4.77461 | 2 ft | 15 kts | 185° |
| 2026-05-04 11:25 | 52.30664 | 4.77468 | 2 ft | 18 kts | 159° |
| 2026-05-04 11:25 | 52.30541 | 4.77567 | 2 ft | 21 kts | 153° |
| 2026-05-04 11:26 | 52.30519 | 4.77586 | 2 ft | 0 kts | 153° |
| 2026-05-04 11:27 | 52.28450 | 4.72545 | 794 ft | 190 kts | 239° |
| 2026-05-04 11:28 | 52.27775 | 4.70790 | 1837 ft | 177 kts | 237° |
| 2026-05-04 11:28 | 52.27031 | 4.69108 | 2374 ft | 193 kts | 225° |
| 2026-05-04 11:28 | 52.25856 | 4.67873 | 2603 ft | 218 kts | 197° |
| 2026-05-04 11:28 | 52.24273 | 4.67866 | 2907 ft | 242 kts | 160° |
| 2026-05-04 11:29 | 52.22901 | 4.69512 | 3636 ft | 248 kts | 125° |
| 2026-05-04 11:29 | 52.22054 | 4.71973 | 4508 ft | 250 kts | 115° |
| 2026-05-04 11:29 | 52.21334 | 4.74574 | 5350 ft | 253 kts | 114° |
| 2026-05-04 11:29 | 52.20583 | 4.77155 | 6162 ft | 258 kts | 118° |
| 2026-05-04 11:31 | 52.23444 | 4.95665 | 10559 ft | 319 kts | 38° |
| 2026-05-04 11:33 | 52.38204 | 5.11365 | 14064 ft | 388 kts | 13° |
| 2026-05-04 11:33 | 52.40825 | 5.12492 | 14652 ft | 391 kts | 13° |
| 2026-05-04 11:33 | 52.43471 | 5.13626 | 15307 ft | 394 kts | 12° |
| 2026-05-04 11:34 | 52.46134 | 5.14776 | 15928 ft | 397 kts | 12° |
| 2026-05-04 11:34 | 52.48787 | 5.15931 | 16506 ft | 401 kts | 12° |
| 2026-05-04 11:34 | 52.51496 | 5.17116 | 17083 ft | 405 kts | 12° |
| 2026-05-04 11:34 | 52.54228 | 5.18316 | 17655 ft | 408 kts | 12° |
| 2026-05-04 11:35 | 52.56986 | 5.19530 | 18206 ft | 412 kts | 12° |
| 2026-05-04 11:35 | 52.59766 | 5.20757 | 18679 ft | 416 kts | 12° |
| 2026-05-04 11:35 | 52.62574 | 5.21998 | 19140 ft | 420 kts | 12° |
| 2026-05-04 11:35 | 52.65411 | 5.23254 | 19610 ft | 423 kts | 12° |
| 2026-05-04 11:36 | 52.68265 | 5.24519 | 20064 ft | 427 kts | 11° |
| 2026-05-04 11:36 | 52.71143 | 5.25797 | 20528 ft | 430 kts | 11° |
| 2026-05-04 11:36 | 52.74054 | 5.26991 | 20977 ft | 432 kts | 8° |
| 2026-05-04 11:36 | 52.77015 | 5.27931 | 21432 ft | 434 kts | 5° |
| 2026-05-04 11:37 | 52.80007 | 5.28723 | 21907 ft | 436 kts | 4° |
| 2026-05-04 11:37 | 52.83022 | 5.29445 | 22346 ft | 439 kts | 3° |
| 2026-05-04 11:37 | 52.86060 | 5.30148 | 22787 ft | 442 kts | 3° |
| 2026-05-04 11:37 | 52.89111 | 5.30857 | 23241 ft | 445 kts | 3° |
| 2026-05-04 11:38 | 52.92196 | 5.31588 | 23631 ft | 449 kts | 3° |
| 2026-05-04 11:38 | 52.95302 | 5.32340 | 23963 ft | 453 kts | 3° |
| 2026-05-04 11:38 | 52.98436 | 5.33112 | 24285 ft | 456 kts | 4° |
| 2026-05-04 11:38 | 53.01586 | 5.33895 | 24611 ft | 459 kts | 4° |
| 2026-05-04 11:39 | 53.04750 | 5.34687 | 24917 ft | 462 kts | 4° |
| 2026-05-04 11:39 | 53.07937 | 5.35487 | 25225 ft | 464 kts | 4° |
| 2026-05-04 11:40 | 53.27371 | 5.40379 | 27082 ft | 477 kts | 4° |
| 2026-05-04 11:41 | 53.30654 | 5.41210 | 27453 ft | 477 kts | 4° |
| 2026-05-04 11:41 | 53.33900 | 5.42034 | 27845 ft | 476 kts | 4° |
| 2026-05-04 11:41 | 53.37176 | 5.42867 | 28204 ft | 476 kts | 4° |
| 2026-05-04 11:41 | 53.40456 | 5.43701 | 28562 ft | 476 kts | 4° |
| 2026-05-04 11:42 | 53.43729 | 5.44534 | 28919 ft | 476 kts | 4° |
| 2026-05-04 11:42 | 53.47001 | 5.45368 | 29265 ft | 476 kts | 4° |
| 2026-05-04 11:42 | 53.50271 | 5.46202 | 29600 ft | 476 kts | 4° |
| 2026-05-04 11:42 | 53.53544 | 5.47038 | 29928 ft | 475 kts | 4° |
| 2026-05-04 11:43 | 53.56814 | 5.47875 | 30219 ft | 475 kts | 4° |
| 2026-05-04 11:43 | 53.60080 | 5.48713 | 30508 ft | 474 kts | 4° |
| 2026-05-04 11:43 | 53.63318 | 5.49863 | 30863 ft | 476 kts | 13° |
| 2026-05-04 11:43 | 53.66465 | 5.51534 | 31291 ft | 473 kts | 14° |
| 2026-05-04 11:44 | 53.69579 | 5.53306 | 31589 ft | 472 kts | 15° |
| 2026-05-04 11:44 | 53.72683 | 5.55150 | 31837 ft | 472 kts | 16° |
| 2026-05-04 11:44 | 53.75770 | 5.57026 | 32071 ft | 472 kts | 16° |
| 2026-05-04 11:44 | 53.78855 | 5.58919 | 32320 ft | 471 kts | 17° |
| 2026-05-04 11:45 | 53.81935 | 5.60813 | 32560 ft | 470 kts | 17° |
| 2026-05-04 11:45 | 53.85013 | 5.62705 | 32797 ft | 470 kts | 17° |
| 2026-05-04 11:45 | 53.88074 | 5.64584 | 33132 ft | 466 kts | 17° |
| 2026-05-04 11:45 | 53.91105 | 5.66445 | 33668 ft | 458 kts | 17° |
| 2026-05-04 11:46 | 53.94092 | 5.68278 | 33937 ft | 457 kts | 17° |
| 2026-05-04 11:46 | 53.97087 | 5.70113 | 34052 ft | 458 kts | 17° |
| 2026-05-04 11:46 | 54.00084 | 5.71952 | 34147 ft | 459 kts | 17° |
| 2026-05-04 11:46 | 54.03089 | 5.73798 | 34267 ft | 459 kts | 17° |
| 2026-05-04 11:47 | 54.06094 | 5.75649 | 34405 ft | 459 kts | 17° |
| 2026-05-04 11:47 | 54.09104 | 5.77506 | 34515 ft | 459 kts | 17° |
| 2026-05-04 11:47 | 54.12106 | 5.79361 | 34685 ft | 458 kts | 18° |
| 2026-05-04 11:47 | 54.15055 | 5.81188 | 34963 ft | 454 kts | 18° |
| 2026-05-04 11:48 | 54.18028 | 5.83032 | 35034 ft | 456 kts | 18° |
| 2026-05-04 11:48 | 54.24026 | 5.86759 | 35039 ft | 460 kts | 17° |
| 2026-05-04 11:49 | 54.30050 | 5.90513 | 35039 ft | 460 kts | 17° |
| 2026-05-04 11:49 | 54.36063 | 5.94274 | 35055 ft | 460 kts | 17° |
| 2026-05-04 11:50 | 54.42059 | 5.98036 | 35042 ft | 458 kts | 17° |
| 2026-05-04 11:50 | 54.48042 | 6.01802 | 35043 ft | 457 kts | 17° |
| 2026-05-04 11:51 | 54.54017 | 6.05573 | 35042 ft | 457 kts | 17° |
| 2026-05-04 11:51 | 54.60000 | 6.09361 | 35061 ft | 457 kts | 18° |
| 2026-05-04 11:52 | 54.65960 | 6.13147 | 35041 ft | 454 kts | 18° |
| 2026-05-04 11:52 | 54.71879 | 6.16919 | 35044 ft | 453 kts | 18° |
| 2026-05-04 11:53 | 54.77790 | 6.20697 | 35037 ft | 453 kts | 18° |
| 2026-05-04 11:53 | 54.83709 | 6.24492 | 35041 ft | 453 kts | 18° |
| 2026-05-04 11:55 | 55.06186 | 6.38913 | 35034 ft | 448 kts | 18° |
| 2026-05-04 11:56 | 55.12047 | 6.42591 | 35037 ft | 446 kts | 18° |
| 2026-05-04 11:56 | 55.17867 | 6.46259 | 35034 ft | 443 kts | 18° |
| 2026-05-04 11:57 | 55.23663 | 6.49930 | 35032 ft | 443 kts | 18° |
| 2026-05-04 11:57 | 55.29454 | 6.53613 | 35032 ft | 443 kts | 18° |
| 2026-05-04 11:58 | 55.35248 | 6.57309 | 35046 ft | 442 kts | 18° |
| 2026-05-04 11:58 | 55.40968 | 6.60971 | 35031 ft | 439 kts | 18° |
| 2026-05-04 11:59 | 55.46702 | 6.64652 | 35032 ft | 438 kts | 18° |
| 2026-05-04 11:59 | 55.52429 | 6.68339 | 35029 ft | 438 kts | 18° |
| 2026-05-04 12:00 | 55.58165 | 6.72045 | 35027 ft | 440 kts | 18° |
| 2026-05-04 12:00 | 55.63929 | 6.75777 | 35024 ft | 441 kts | 18° |
| 2026-05-04 12:01 | 55.69675 | 6.79512 | 35027 ft | 439 kts | 18° |
| 2026-05-04 12:02 | 55.89762 | 6.92661 | 35016 ft | 439 kts | 18° |
| 2026-05-04 12:03 | 55.95468 | 6.96423 | 35011 ft | 439 kts | 18° |
| 2026-05-04 12:03 | 56.01224 | 7.00230 | 35009 ft | 439 kts | 18° |
| 2026-05-04 12:04 | 56.06918 | 7.04007 | 35011 ft | 439 kts | 18° |
| 2026-05-04 12:04 | 56.12680 | 7.07842 | 35008 ft | 439 kts | 18° |
| 2026-05-04 12:05 | 56.18372 | 7.11643 | 35009 ft | 439 kts | 18° |
| 2026-05-04 12:05 | 56.24090 | 7.15472 | 35002 ft | 439 kts | 18° |
| 2026-05-04 12:06 | 56.29814 | 7.19318 | 35001 ft | 439 kts | 18° |
| 2026-05-04 12:06 | 56.35536 | 7.23175 | 34996 ft | 439 kts | 18° |
| 2026-05-04 12:07 | 56.41259 | 7.27045 | 34997 ft | 440 kts | 18° |
| 2026-05-04 12:07 | 56.46992 | 7.30935 | 34993 ft | 440 kts | 18° |
| 2026-05-04 12:08 | 56.52728 | 7.34839 | 34988 ft | 440 kts | 18° |
| 2026-05-04 12:08 | 56.58424 | 7.38728 | 34988 ft | 440 kts | 18° |
| 2026-05-04 12:09 | 56.64157 | 7.42656 | 34987 ft | 441 kts | 17° |
| 2026-05-04 12:09 | 56.69943 | 7.46632 | 34981 ft | 442 kts | 17° |
| 2026-05-04 12:10 | 56.75702 | 7.50603 | 34974 ft | 442 kts | 17° |
| 2026-05-04 12:10 | 56.81423 | 7.54562 | 34979 ft | 442 kts | 17° |
| 2026-05-04 12:11 | 56.87181 | 7.58558 | 34974 ft | 442 kts | 17° |
| 2026-05-04 12:11 | 56.92942 | 7.62570 | 34971 ft | 443 kts | 17° |
| 2026-05-04 12:12 | 56.98709 | 7.66599 | 34969 ft | 444 kts | 17° |
| 2026-05-04 12:12 | 57.04477 | 7.70642 | 34957 ft | 444 kts | 17° |
| 2026-05-04 12:14 | 57.27581 | 7.86975 | 34949 ft | 445 kts | 17° |
| 2026-05-04 12:15 | 57.33361 | 7.91096 | 34943 ft | 445 kts | 17° |
| 2026-05-04 12:15 | 57.39144 | 7.95232 | 34932 ft | 445 kts | 17° |
| 2026-05-04 12:16 | 57.44932 | 7.99387 | 34932 ft | 446 kts | 16° |
| 2026-05-04 12:16 | 57.50720 | 8.03555 | 34925 ft | 446 kts | 16° |
| 2026-05-04 12:17 | 57.56505 | 8.07735 | 34917 ft | 446 kts | 16° |
| 2026-05-04 12:17 | 57.62292 | 8.11931 | 34917 ft | 446 kts | 16° |
| 2026-05-04 12:18 | 57.68081 | 8.16144 | 34921 ft | 446 kts | 15° |
| 2026-05-04 12:18 | 57.73878 | 8.20376 | 34909 ft | 447 kts | 15° |
| 2026-05-04 12:19 | 57.79672 | 8.24620 | 34892 ft | 447 kts | 15° |
| 2026-05-04 12:19 | 57.85473 | 8.28885 | 34891 ft | 447 kts | 16° |
| 2026-05-04 12:20 | 57.91232 | 8.33134 | 34872 ft | 447 kts | 16° |
| 2026-05-04 12:20 | 57.97033 | 8.37428 | 34871 ft | 448 kts | 15° |
| 2026-05-04 12:21 | 58.02847 | 8.41746 | 34810 ft | 449 kts | 15° |
| 2026-05-04 12:21 | 58.05749 | 8.43908 | 34576 ft | 448 kts | 15° |
| 2026-05-04 12:21 | 58.08645 | 8.46070 | 34327 ft | 447 kts | 15° |
| 2026-05-04 12:22 | 58.11538 | 8.48234 | 34092 ft | 447 kts | 15° |
| 2026-05-04 12:22 | 58.14427 | 8.50398 | 33855 ft | 446 kts | 15° |
| 2026-05-04 12:22 | 58.17308 | 8.52559 | 33585 ft | 445 kts | 15° |
| 2026-05-04 12:22 | 58.20189 | 8.54724 | 33349 ft | 445 kts | 14° |
| 2026-05-04 12:23 | 58.23067 | 8.56890 | 33078 ft | 445 kts | 14° |
| 2026-05-04 12:23 | 58.25946 | 8.59060 | 32808 ft | 445 kts | 14° |
| 2026-05-04 12:23 | 58.28822 | 8.61230 | 32538 ft | 445 kts | 14° |
| 2026-05-04 12:23 | 58.31697 | 8.63405 | 32196 ft | 445 kts | 14° |
| 2026-05-04 12:24 | 58.34574 | 8.65585 | 31799 ft | 444 kts | 14° |
| 2026-05-04 12:24 | 58.37444 | 8.67764 | 31414 ft | 444 kts | 14° |
| 2026-05-04 12:24 | 58.40278 | 8.69919 | 31041 ft | 444 kts | 14° |
| 2026-05-04 12:24 | 58.43145 | 8.72104 | 30661 ft | 444 kts | 14° |
| 2026-05-04 12:25 | 58.46015 | 8.74294 | 30293 ft | 444 kts | 14° |
| 2026-05-04 12:25 | 58.48911 | 8.76508 | 29917 ft | 443 kts | 14° |
| 2026-05-04 12:25 | 58.51744 | 8.78678 | 29491 ft | 443 kts | 14° |
| 2026-05-04 12:25 | 58.54615 | 8.80879 | 29061 ft | 444 kts | 14° |
| 2026-05-04 12:26 | 58.57487 | 8.83084 | 28640 ft | 446 kts | 14° |
| 2026-05-04 12:26 | 58.60378 | 8.85307 | 28224 ft | 448 kts | 14° |
| 2026-05-04 12:26 | 58.63273 | 8.87539 | 27813 ft | 448 kts | 14° |
| 2026-05-04 12:26 | 58.66164 | 8.89775 | 27410 ft | 447 kts | 14° |
| 2026-05-04 12:27 | 58.69047 | 8.92010 | 27013 ft | 446 kts | 14° |
| 2026-05-04 12:27 | 58.71909 | 8.94235 | 26644 ft | 442 kts | 14° |
| 2026-05-04 12:27 | 58.74727 | 8.96439 | 26279 ft | 433 kts | 14° |
| 2026-05-04 12:27 | 58.77486 | 8.98600 | 25906 ft | 424 kts | 14° |
| 2026-05-04 12:28 | 58.80198 | 9.00725 | 25534 ft | 416 kts | 13° |
| 2026-05-04 12:28 | 58.82858 | 9.02861 | 25171 ft | 413 kts | 17° |
| 2026-05-04 12:28 | 58.85358 | 9.05605 | 24793 ft | 415 kts | 26° |
| 2026-05-04 12:28 | 58.87706 | 9.08802 | 24436 ft | 411 kts | 28° |
| 2026-05-04 12:29 | 58.89972 | 9.12122 | 24082 ft | 406 kts | 30° |
| 2026-05-04 12:29 | 58.92174 | 9.15486 | 23733 ft | 401 kts | 31° |
| 2026-05-04 12:29 | 58.94339 | 9.18857 | 23369 ft | 396 kts | 31° |
| 2026-05-04 12:29 | 58.96467 | 9.22191 | 22955 ft | 391 kts | 31° |
| 2026-05-04 12:30 | 58.98570 | 9.25483 | 22541 ft | 386 kts | 31° |
| 2026-05-04 12:30 | 59.00651 | 9.28731 | 22200 ft | 382 kts | 31° |
| 2026-05-04 12:30 | 59.02724 | 9.31947 | 21795 ft | 381 kts | 30° |
| 2026-05-04 12:30 | 59.04795 | 9.35157 | 21383 ft | 380 kts | 31° |
| 2026-05-04 12:31 | 59.06857 | 9.38359 | 20994 ft | 379 kts | 31° |
| 2026-05-04 12:31 | 59.08906 | 9.41552 | 20613 ft | 377 kts | 31° |
| 2026-05-04 12:31 | 59.10947 | 9.44737 | 20228 ft | 375 kts | 31° |
| 2026-05-04 12:31 | 59.12970 | 9.47901 | 19848 ft | 372 kts | 31° |
| 2026-05-04 12:32 | 59.14985 | 9.51052 | 19461 ft | 370 kts | 31° |
| 2026-05-04 12:32 | 59.19001 | 9.57122 | 18733 ft | 363 kts | 26° |
| 2026-05-04 12:32 | 59.21087 | 9.59880 | 18375 ft | 361 kts | 25° |
| 2026-05-04 12:33 | 59.23167 | 9.62583 | 18012 ft | 359 kts | 25° |
| 2026-05-04 12:33 | 59.25244 | 9.65266 | 17634 ft | 357 kts | 25° |
| 2026-05-04 12:33 | 59.27316 | 9.67937 | 17223 ft | 356 kts | 25° |
| 2026-05-04 12:33 | 59.29382 | 9.70603 | 16826 ft | 355 kts | 25° |
| 2026-05-04 12:34 | 59.31444 | 9.73249 | 16400 ft | 352 kts | 24° |
| 2026-05-04 12:34 | 59.33592 | 9.75332 | 16024 ft | 338 kts | 11° |
| 2026-05-04 12:34 | 59.35802 | 9.76726 | 15633 ft | 331 kts | 7° |
| 2026-05-04 12:34 | 59.38007 | 9.77953 | 15248 ft | 328 kts | 6° |
| 2026-05-04 12:35 | 59.40200 | 9.79150 | 14870 ft | 327 kts | 6° |
| 2026-05-04 12:35 | 59.42393 | 9.80352 | 14495 ft | 325 kts | 7° |
| 2026-05-04 12:35 | 59.43829 | 9.81148 | 14239 ft | 324 kts | 7° |